Time;durP1;ratioP1;P1;durP2;ratioP2;P2;SDS_P1;SDS_P2;PMS_P1;PMS_P2;Temp;Humidity;BMP_temperature;BMP_pressure;BME280_temperature;BME280_humidity;BME280_pressure;Samples;Min_cycle;Max_cycle;Signal;HPM_P1;HPM_P2
2023/01/11 00:01:41;;;;;;;40.23;19.13;;;3.40;99.90;;;3.27;85.38;100683.69;5111245;28;20312;-71
2023/01/11 00:04:11;;;;;;;47.97;18.43;;;3.50;99.90;;;3.31;85.88;100690.59;5112945;28;20204;-70
2023/01/11 00:06:39;;;;;;;38.70;18.10;;;3.50;99.90;;;3.32;85.54;100691.47;5112215;28;20196;-71
2023/01/11 00:09:08;;;;;;;39.00;17.53;;;3.50;99.90;;;3.32;85.42;100688.94;5111635;28;20602;-72
2023/01/11 00:11:37;;;;;;;43.50;18.73;;;3.50;99.90;;;3.31;84.99;100688.03;5107651;28;20249;-70
2023/01/11 00:14:05;;;;;;;55.07;18.87;;;3.50;99.90;;;3.31;85.27;100692.28;5110319;28;20234;-70
2023/01/11 00:16:34;;;;;;;43.83;18.73;;;3.50;99.90;;;3.29;84.85;100683.75;5111160;28;20235;-70
2023/01/11 00:19:03;;;;;;;53.70;20.33;;;3.40;99.90;;;3.30;84.53;100685.47;5111906;28;20204;-72
2023/01/11 00:21:33;;;;;;;48.57;20.57;;;3.40;99.90;;;3.29;85.08;100684.59;5110955;28;20648;-71
2023/01/11 00:24:01;;;;;;;49.07;21.20;;;3.50;99.90;;;3.32;85.20;100688.94;5111474;28;20203;-71
2023/01/11 00:26:29;;;;;;;49.40;21.40;;;3.50;99.90;;;3.36;86.16;100701.78;5112178;28;20717;-71
2023/01/11 00:28:58;;;;;;;58.10;21.27;;;3.50;99.90;;;3.39;85.10;100693.38;5113248;28;20764;-70
2023/01/11 00:31:27;;;;;;;48.07;21.73;;;3.50;99.90;;;3.39;85.03;100701.03;5102943;28;20203;-70
2023/01/11 00:33:55;;;;;;;45.00;20.57;;;3.60;99.90;;;3.35;85.00;100701.72;5112080;28;20330;-72
2023/01/11 00:36:24;;;;;;;53.70;21.07;;;3.50;99.90;;;3.34;85.36;100697.47;5112972;28;20212;-71
2023/01/11 00:38:54;;;;;;;55.70;21.97;;;3.50;99.90;;;3.33;85.08;100691.50;5112827;28;20196;-71
2023/01/11 00:49:43;;;;;;;49.40;21.67;;;3.60;99.90;;;3.40;85.45;100697.66;5112741;28;20202;-70
2023/01/11 00:52:12;;;;;;;48.90;22.07;;;3.60;99.90;;;3.44;85.76;100709.63;5109339;28;20199;-72
2023/01/11 00:54:42;;;;;;;47.83;20.63;;;3.60;99.90;;;3.45;85.31;100705.41;5109299;28;20273;-72
2023/01/11 00:57:11;;;;;;;48.37;21.10;;;3.60;99.90;;;3.45;85.11;100705.41;5104173;28;20219;-71
2023/01/11 00:59:40;;;;;;;46.67;21.33;;;3.60;99.90;;;3.46;85.51;100714.75;5110122;28;20211;-71
2023/01/11 01:02:10;;;;;;;47.73;21.67;;;3.60;99.90;;;3.47;85.35;100708.88;5110014;28;20737;-70
2023/01/11 01:04:39;;;;;;;43.77;21.10;;;3.60;99.90;;;3.46;85.06;100715.66;5110433;28;20212;-69
2023/01/11 01:07:08;;;;;;;49.87;22.03;;;3.70;99.90;;;3.47;85.25;100712.28;5108813;28;20284;-70
2023/01/11 01:09:36;;;;;;;48.20;21.53;;;3.60;99.90;;;3.50;85.26;100719.13;5102222;28;20215;-70
2023/01/11 01:12:08;;;;;;;51.30;22.83;;;3.70;99.90;;;3.50;84.69;100714.03;5106731;28;20344;-70
2023/01/11 01:14:35;;;;;;;49.17;21.90;;;3.70;99.90;;;3.54;84.60;100720.97;5107998;28;20647;-69
2023/01/11 01:17:07;;;;;;;44.40;21.03;;;3.70;99.90;;;3.55;84.84;100718.44;5112788;28;20224;-71
2023/01/11 01:19:38;;;;;;;58.70;24.33;;;3.80;99.90;;;3.57;85.51;100714.28;5111820;28;20204;-70
2023/01/11 01:22:06;;;;;;;47.07;23.67;;;3.70;99.90;;;3.61;85.10;100725.41;5111673;28;20204;-72
2023/01/11 01:24:35;;;;;;;50.70;21.47;;;3.70;99.90;;;3.63;84.75;100721.19;5109876;28;20211;-72
2023/01/11 01:27:04;;;;;;;48.53;23.10;;;3.80;99.90;;;3.64;84.90;100720.38;5112838;28;20200;-71
2023/01/11 01:29:34;;;;;;;47.70;22.20;;;3.80;99.90;;;3.65;85.05;100719.56;5111141;28;20589;-71
2023/01/11 01:32:02;;;;;;;42.33;21.63;;;3.80;99.90;;;3.66;84.48;100725.53;5084055;28;20615;-71
2023/01/11 01:34:36;;;;;;;49.40;21.23;;;3.80;99.90;;;3.65;84.66;100723.81;5112811;28;20200;-69
2023/01/11 01:37:10;;;;;;;42.27;21.00;;;3.80;99.90;;;3.63;84.88;100728.84;5112996;28;20678;-70
2023/01/11 01:39:39;;;;;;;39.43;19.57;;;3.80;99.90;;;3.65;84.51;100729.75;5110214;28;20199;-73
2023/01/11 01:42:14;;;;;;;41.53;20.53;;;3.80;99.90;;;3.65;85.07;100726.34;5112566;28;20230;-71
2023/01/11 01:45:02;;;;;;;38.53;18.70;;;3.80;99.90;;;3.65;84.64;100727.22;5111770;28;20540;-71
2023/01/11 01:47:45;;;;;;;43.57;21.17;;;3.80;99.90;;;3.68;85.19;100724.72;5112275;28;20192;-73
2023/01/11 01:50:20;;;;;;;45.07;20.60;;;3.90;99.90;;;3.70;84.86;100728.19;5098340;28;20272;-71
2023/01/11 01:52:57;;;;;;;37.80;20.20;;;3.90;99.90;;;3.74;84.77;100724.03;5102735;28;20712;-71
2023/01/11 01:55:29;;;;;;;37.03;20.30;;;3.90;99.90;;;3.72;84.89;100706.19;5110847;28;20191;-70
2023/01/11 01:58:00;;;;;;;37.77;19.73;;;3.90;99.90;;;3.73;84.99;100715.53;5111437;28;20211;-71
2023/01/11 02:00:29;;;;;;;34.77;17.87;;;3.90;99.90;;;3.73;84.40;100723.19;5108836;28;20227;-71
2023/01/11 02:03:01;;;;;;;41.07;19.37;;;3.90;99.90;;;3.74;84.86;100718.94;5109128;28;20200;-72
2023/01/11 02:05:29;;;;;;;46.70;17.93;;;3.90;99.90;;;3.73;84.30;100725.72;5111195;28;20244;-71
2023/01/11 02:07:59;;;;;;;36.87;19.23;;;3.90;99.90;;;3.72;84.36;100723.13;5106905;28;20552;-70
2023/01/11 02:10:28;;;;;;;44.33;20.90;;;3.80;99.90;;;3.70;84.69;100720.53;5106856;28;20207;-71
2023/01/11 02:13:01;;;;;;;38.63;17.47;;;3.80;99.90;;;3.69;85.26;100721.38;5110681;28;20258;-69
2023/01/11 02:15:32;;;;;;;40.07;20.57;;;3.80;99.90;;;3.69;85.26;100716.28;5106829;28;20611;-70
2023/01/11 02:18:00;;;;;;;49.77;19.27;;;3.80;99.90;;;3.70;84.91;100710.34;5109369;28;20231;-70
2023/01/11 02:20:51;;;;;;;35.43;19.90;;;3.80;99.90;;;3.71;85.39;100712.06;5098752;28;20209;-70
2023/01/11 02:24:15;;;;;;;38.57;20.57;;;3.90;99.90;;;3.74;85.59;100709.59;5103552;28;20204;-70
2023/01/11 02:27:33;;;;;;;40.87;20.73;;;3.90;99.90;;;3.78;85.30;100705.47;5109442;28;20200;-70
2023/01/11 02:30:24;;;;;;;38.47;19.57;;;3.90;99.90;;;3.78;85.62;100702.91;5085383;28;20200;-71
2023/01/11 02:33:04;;;;;;;41.00;21.07;;;4.00;99.90;;;3.81;85.24;100703.00;5102793;28;20608;-70
2023/01/11 02:35:42;;;;;;;36.37;20.13;;;4.00;99.90;;;3.83;85.18;100709.88;5110634;28;20196;-68
2023/01/11 02:38:17;;;;;;;45.17;24.73;;;4.00;99.90;;;3.84;84.99;100709.03;5110942;28;20280;-71
2023/01/11 02:40:57;;;;;;;36.70;22.67;;;4.00;99.90;;;3.85;85.67;100708.19;5111176;28;20615;-70
2023/01/11 02:46:30;;;;;;;39.10;19.50;;;4.00;99.90;;;3.87;84.91;100693.81;5110612;28;20211;-69
2023/01/11 02:49:06;;;;;;;40.43;21.00;;;4.10;99.90;;;3.92;85.28;100682.88;5111451;28;20195;-71
2023/01/11 02:51:41;;;;;;;36.00;21.10;;;4.00;99.90;;;3.93;84.66;100684.59;5108319;28;20200;-70
2023/01/11 02:54:13;;;;;;;36.83;20.53;;;4.10;99.90;;;3.96;85.28;100689.78;5106811;28;20207;-70
2023/01/11 02:56:46;;;;;;;37.40;21.20;;;4.10;99.90;;;4.01;84.53;100704.34;5110100;28;20192;-71
2023/01/11 02:59:19;;;;;;;36.50;21.13;;;4.10;99.90;;;4.01;84.82;100701.81;5110538;28;20212;-70
2023/01/11 03:01:54;;;;;;;35.73;18.43;;;4.10;99.90;;;4.01;84.86;100698.41;5104408;28;20216;-70
2023/01/11 03:04:25;;;;;;;36.23;20.17;;;4.10;99.90;;;3.96;84.52;100710.19;5108176;28;20212;-69
2023/01/11 03:07:14;;;;;;;40.57;18.27;;;4.10;99.90;;;3.94;84.84;100704.16;5109630;28;20241;-71
2023/01/11 03:10:01;;;;;;;29.17;17.80;;;4.10;99.90;;;3.93;84.80;100705.00;5110303;28;20257;-69
2023/01/11 03:12:51;;;;;;;32.90;18.33;;;4.10;99.90;;;3.95;84.54;100704.22;5096105;28;20288;-70
2023/01/11 03:15:39;;;;;;;35.77;18.47;;;4.10;99.90;;;3.92;84.55;100703.28;5098450;28;20205;-72
2023/01/11 03:18:28;;;;;;;27.97;17.20;;;4.10;99.90;;;3.90;84.52;100707.47;5100528;28;20254;-70
2023/01/11 03:21:11;;;;;;;35.63;17.03;;;4.00;99.90;;;3.85;84.16;100705.66;5111187;28;20268;-69
2023/01/11 03:23:48;;;;;;;37.80;16.47;;;4.00;99.90;;;3.81;84.23;100708.94;5104996;28;20200;-70
2023/01/11 03:26:27;;;;;;;29.37;18.10;;;3.90;99.90;;;3.79;85.15;100708.06;5113821;28;20196;-71
2023/01/11 03:29:09;;;;;;;31.17;17.90;;;4.00;99.90;;;3.80;84.69;100704.69;5112764;28;20290;-71
2023/01/11 03:31:40;;;;;;;35.13;17.80;;;4.00;99.90;;;3.82;85.12;100703.03;5107535;28;20210;-70
2023/01/11 03:34:18;;;;;;;30.00;16.93;;;4.00;99.90;;;3.83;85.41;100697.13;5112749;27;20322;-71
2023/01/11 03:36:54;;;;;;;27.50;16.23;;;4.00;99.90;;;3.83;85.01;100699.66;5099588;28;20248;-71
2023/01/11 03:39:29;;;;;;;30.77;16.30;;;4.00;99.90;;;3.81;84.62;100696.22;5111615;27;20242;-70
2023/01/11 03:42:04;;;;;;;30.97;16.53;;;3.90;99.90;;;3.78;84.73;100693.56;5103185;28;20204;-70
2023/01/11 03:44:42;;;;;;;26.63;17.00;;;3.90;99.90;;;3.78;84.99;100690.16;5112483;28;20206;-71
2023/01/11 03:47:15;;;;;;;32.30;19.57;;;4.00;99.90;;;3.81;84.88;100685.16;5113514;28;20287;-71
2023/01/11 03:49:51;;;;;;;34.73;20.40;;;3.90;99.90;;;3.86;85.01;100686.13;5112161;28;20250;-71
2023/01/11 03:52:24;;;;;;;35.97;18.67;;;4.00;99.90;;;3.92;85.40;100690.53;5106330;28;20208;-70
2023/01/11 03:54:55;;;;;;;35.20;17.43;;;4.00;99.90;;;3.93;85.31;100689.69;5110854;28;20702;-70
2023/01/11 03:57:29;;;;;;;35.83;17.80;;;4.10;99.90;;;3.92;84.24;100683.75;5112400;28;20218;-71
2023/01/11 03:59:58;;;;;;;32.47;16.80;;;4.00;99.90;;;3.91;84.82;100686.25;5110670;28;20364;-69
2023/01/11 04:02:34;;;;;;;33.13;19.33;;;4.00;99.90;;;3.95;84.25;100688.94;5111768;27;20241;-70
2023/01/11 04:05:09;;;;;;;32.50;17.23;;;4.00;99.90;;;3.91;83.77;100683.72;5112723;28;20203;-69
2023/01/11 04:07:37;;;;;;;33.53;17.33;;;4.00;99.90;;;3.91;84.52;100693.91;5112337;28;20212;-70
2023/01/11 04:10:07;;;;;;;33.00;16.13;;;4.00;99.90;;;3.85;84.35;100686.94;5109792;28;20196;-69
2023/01/11 04:12:36;;;;;;;39.90;17.57;;;4.00;99.90;;;3.81;84.38;100691.09;5110897;28;20219;-70
2023/01/11 04:15:05;;;;;;;34.47;19.20;;;3.90;99.90;;;3.82;84.84;100690.28;5111017;28;20215;-70
2023/01/11 04:17:34;;;;;;;35.87;19.33;;;4.00;99.90;;;3.85;85.02;100686.94;5100396;28;20235;-70
2023/01/11 04:20:03;;;;;;;30.80;18.33;;;4.00;99.90;;;3.86;84.67;100684.44;5111246;28;20255;-71
2023/01/11 04:22:32;;;;;;;39.43;19.93;;;4.00;99.90;;;3.91;84.50;100696.47;5110739;28;20249;-71
2023/01/11 04:25:00;;;;;;;37.73;19.27;;;4.00;99.90;;;3.92;84.79;100696.50;5111078;28;20249;-70
2023/01/11 04:27:29;;;;;;;40.80;17.73;;;4.00;99.90;;;3.92;84.16;100698.19;5103508;28;20272;-70
2023/01/11 04:29:57;;;;;;;29.17;17.37;;;4.00;99.90;;;3.87;84.27;100698.06;5103783;28;20207;-70
2023/01/11 04:32:26;;;;;;;36.93;19.77;;;4.00;99.90;;;3.85;84.34;100692.06;5106509;28;20301;-70
2023/01/11 04:34:54;;;;;;;32.40;19.40;;;4.00;99.90;;;3.83;84.66;100689.47;5112448;28;20316;-70
2023/01/11 04:37:24;;;;;;;44.27;18.47;;;4.00;99.90;;;3.84;85.44;100685.25;5110578;28;20261;-70
2023/01/11 04:39:52;;;;;;;37.27;17.10;;;4.00;99.90;;;3.85;84.75;100679.31;5112498;28;20231;-70
2023/01/11 04:42:20;;;;;;;30.20;18.20;;;4.00;99.90;;;3.86;84.94;100681.03;5110438;28;20241;-70
2023/01/11 04:44:50;;;;;;;31.53;18.00;;;4.00;99.90;;;3.88;85.48;100671.75;5109624;28;20204;-68
2023/01/11 04:47:21;;;;;;;33.30;17.40;;;4.00;99.90;;;3.92;84.97;100670.13;5100812;28;20563;-69
2023/01/11 04:49:50;;;;;;;32.43;18.37;;;4.00;99.90;;;3.96;85.61;100682.13;5111300;28;20222;-70
2023/01/11 04:52:20;;;;;;;34.13;19.53;;;4.10;99.90;;;4.00;84.96;100681.38;5111277;27;20211;-71
2023/01/11 04:54:51;;;;;;;34.83;19.27;;;4.10;99.90;;;4.02;85.39;100677.19;5111900;28;20277;-71
2023/01/11 04:57:20;;;;;;;34.47;18.80;;;4.10;99.90;;;4.01;85.15;100678.84;5109444;28;20222;-69
2023/01/11 04:59:49;;;;;;;32.87;16.73;;;4.20;99.90;;;4.00;84.35;100679.69;5108066;28;20231;-69
2023/01/11 05:02:18;;;;;;;34.53;16.97;;;4.10;99.90;;;3.96;84.95;100680.44;5108685;27;20213;-71
2023/01/11 05:04:46;;;;;;;28.80;17.93;;;4.10;99.90;;;3.97;84.34;100692.34;5111139;28;20223;-70
2023/01/11 05:07:14;;;;;;;40.10;17.43;;;4.10;99.90;;;3.94;84.76;100676.13;5111976;28;20203;-69
2023/01/11 05:09:43;;;;;;;33.07;17.03;;;4.10;99.90;;;3.91;84.23;100684.56;5108951;28;20200;-70
2023/01/11 05:12:13;;;;;;;34.70;17.70;;;4.00;99.90;;;3.87;84.49;100687.88;5109013;28;20653;-70
2023/01/11 05:14:42;;;;;;;32.07;17.90;;;4.00;99.90;;;3.88;84.87;100689.59;5108227;28;20249;-70
2023/01/11 05:17:14;;;;;;;38.77;19.23;;;4.00;99.90;;;3.86;85.24;100686.97;5109295;27;20232;-70
2023/01/11 05:19:43;;;;;;;35.97;17.17;;;4.00;99.90;;;3.87;84.85;100695.53;5093986;28;20242;-71
2023/01/11 05:22:12;;;;;;;31.43;16.73;;;4.00;99.90;;;3.86;84.79;100698.88;5111770;28;20211;-71
2023/01/11 05:24:40;;;;;;;29.13;13.83;;;4.00;99.90;;;3.86;84.67;100693.78;5109698;28;20346;-71
2023/01/11 05:27:09;;;;;;;31.90;13.97;;;4.00;99.90;;;3.86;84.90;100693.78;5109946;28;20246;-70
2023/01/11 05:29:39;;;;;;;25.73;13.50;;;4.00;99.90;;;3.82;85.00;100687.72;5109690;28;20645;-70
2023/01/11 05:32:07;;;;;;;25.73;12.77;;;4.00;99.90;;;3.78;84.50;100696.13;5105394;28;20253;-70
2023/01/11 05:34:36;;;;;;;22.47;11.67;;;3.90;99.90;;;3.75;84.67;100696.03;5109073;28;20208;-70
2023/01/11 05:37:04;;;;;;;27.00;10.97;;;3.90;99.90;;;3.70;84.54;100691.66;5114991;28;20215;-72
2023/01/11 05:39:33;;;;;;;27.33;11.07;;;3.80;99.90;;;3.68;84.75;100694.13;5112542;28;20714;-70
2023/01/11 05:42:01;;;;;;;18.67;9.87;;;3.80;99.90;;;3.63;84.97;100694.03;5113657;28;20648;-71
2023/01/11 05:47:17;;;;;;;20.27;10.43;;;3.80;99.90;;;3.62;85.46;100679.56;5111299;28;20738;-71
2023/01/11 05:49:47;;;;;;;22.47;11.77;;;3.80;99.90;;;3.59;85.41;100668.44;5112792;28;20659;-70
2023/01/11 05:52:16;;;;;;;27.30;10.60;;;3.70;99.90;;;3.58;85.59;100676.91;5104090;28;20636;-71
2023/01/11 05:54:44;;;;;;;22.10;10.90;;;3.70;99.90;;;3.55;85.06;100672.59;5104087;28;20212;-71
2023/01/11 05:57:13;;;;;;;25.93;12.03;;;3.70;99.90;;;3.56;85.80;100674.31;5103439;28;20207;-71
2023/01/11 05:59:41;;;;;;;28.80;11.43;;;3.80;99.90;;;3.57;85.47;100657.31;5113273;28;20285;-71
2023/01/11 06:02:10;;;;;;;20.83;11.23;;;3.70;99.90;;;3.56;85.38;100661.56;5108357;28;20253;-68
2023/01/11 06:04:40;;;;;;;25.90;12.47;;;3.70;99.90;;;3.56;85.74;100664.09;5117354;28;20648;-70
2023/01/11 06:07:09;;;;;;;24.83;12.57;;;3.70;99.90;;;3.54;85.64;100659.81;5105650;28;20212;-68
2023/01/11 06:09:37;;;;;;;24.53;11.03;;;3.70;99.90;;;3.53;85.60;100668.25;5104429;28;20205;-69
2023/01/11 06:12:06;;;;;;;27.87;12.83;;;3.70;99.90;;;3.52;85.29;100659.75;5102021;28;20223;-69
2023/01/11 06:14:35;;;;;;;25.60;12.27;;;3.70;99.90;;;3.54;85.68;100664.91;5116928;28;20613;-70
2023/01/11 06:17:05;;;;;;;24.67;11.10;;;3.70;99.90;;;3.53;85.46;100665.72;5123615;28;20210;-69
2023/01/11 06:19:34;;;;;;;22.30;11.67;;;3.70;99.90;;;3.57;86.61;100665.84;5101076;28;20203;-70
2023/01/11 06:22:03;;;;;;;26.33;12.47;;;3.70;99.90;;;3.62;85.56;100673.63;5115089;28;20245;-71
2023/01/11 06:24:32;;;;;;;28.27;11.73;;;3.80;99.90;;;3.60;86.18;100659.97;5093043;28;20256;-71
2023/01/11 06:27:01;;;;;;;26.60;11.73;;;3.80;99.90;;;3.66;85.56;100665.22;5109904;28;20227;-71
2023/01/11 06:29:29;;;;;;;22.83;11.20;;;3.80;99.90;;;3.65;85.63;100663.50;5125768;28;20204;-68
2023/01/11 06:31:58;;;;;;;24.83;11.00;;;3.80;99.90;;;3.67;85.98;100661.00;5133782;28;20226;-70
2023/01/11 06:34:29;;;;;;;24.13;10.60;;;3.80;99.90;;;3.66;85.81;100649.94;5132311;28;20219;-71
2023/01/11 06:36:57;;;;;;;25.00;11.27;;;3.80;99.90;;;3.67;85.62;100658.44;5127155;28;20220;-74
2023/01/11 06:39:27;;;;;;;26.57;11.60;;;3.80;99.90;;;3.66;85.78;100656.72;5127481;28;20203;-71
2023/01/11 06:41:56;;;;;;;25.50;11.50;;;3.80;99.90;;;3.68;85.82;100649.97;5110538;28;20205;-70
2023/01/11 06:44:24;;;;;;;21.90;11.13;;;3.80;99.90;;;3.69;85.88;100654.25;5115417;28;20204;-70
2023/01/11 06:46:52;;;;;;;23.77;11.17;;;3.90;99.90;;;3.69;85.15;100654.25;5114446;28;20208;-72
2023/01/11 06:49:21;;;;;;;30.30;14.30;;;3.80;99.90;;;3.68;85.40;100653.38;5112365;28;20208;-71
2023/01/11 06:51:49;;;;;;;26.43;12.03;;;3.80;99.90;;;3.71;85.85;100658.56;5118454;28;20202;-72
2023/01/11 06:54:21;;;;;;;24.13;11.80;;;3.90;99.90;;;3.72;85.70;100655.19;5107541;28;20232;-72
2023/01/11 06:56:51;;;;;;;25.53;12.20;;;3.90;99.90;;;3.74;85.84;100661.19;5116683;28;20196;-72
2023/01/11 06:59:20;;;;;;;26.17;11.63;;;3.90;99.90;;;3.74;85.19;100655.22;5104003;28;20213;-72
2023/01/11 07:01:49;;;;;;;26.23;10.73;;;3.90;99.90;;;3.73;84.80;100661.16;5115637;28;20633;-71
2023/01/11 07:04:19;;;;;;;27.47;11.67;;;3.90;99.90;;;3.72;85.37;100655.19;5120348;28;20204;-72
2023/01/11 07:06:53;;;;;;;26.47;11.77;;;3.90;99.90;;;3.70;85.43;100664.47;5117736;28;20204;-74
2023/01/11 07:09:21;;;;;;;28.20;12.10;;;3.90;99.90;;;3.73;85.34;100662.03;5111267;28;20215;-72
2023/01/11 07:11:51;;;;;;;23.50;11.90;;;3.90;99.90;;;3.70;85.39;100659.38;5120085;28;20216;-72
2023/01/11 07:14:23;;;;;;;24.17;11.80;;;3.90;99.90;;;3.71;84.44;100658.56;5119360;28;20267;-73
2023/01/11 07:16:52;;;;;;;23.80;11.60;;;3.90;99.90;;;3.71;84.55;100668.75;5120984;28;20231;-73
2023/01/11 07:19:20;;;;;;;22.10;10.10;;;3.90;99.90;;;3.70;84.30;100667.03;5121842;28;20238;-72
2023/01/11 07:21:49;;;;;;;22.33;10.10;;;3.90;99.90;;;3.69;84.08;100661.91;5121758;28;20276;-70
2023/01/11 07:24:19;;;;;;;24.37;11.30;;;3.80;99.90;;;3.68;83.99;100657.59;5122409;28;20261;-72
2023/01/11 07:26:47;;;;;;;24.83;11.77;;;3.80;99.90;;;3.68;83.88;100661.00;5120480;28;20291;-73
2023/01/11 07:29:17;;;;;;;24.80;10.87;;;3.80;99.90;;;3.67;84.19;100671.19;5118777;28;20204;-76
2023/01/11 07:31:47;;;;;;;21.33;11.50;;;3.80;99.90;;;3.61;84.57;100664.25;5113868;28;20211;-74
2023/01/11 07:34:16;;;;;;;23.27;11.70;;;3.70;99.90;;;3.60;83.61;100655.72;5117194;28;20719;-80
2023/01/11 07:36:44;;;;;;;23.10;10.90;;;3.70;99.90;;;3.60;83.95;100667.59;5122501;28;20211;-78
2023/01/11 07:39:13;;;;;;;20.00;10.30;;;3.70;99.90;;;3.58;83.02;100664.16;5124671;28;20676;-78
2023/01/11 07:44:29;;;;;;;24.40;11.67;;;3.70;99.90;;;3.54;84.16;100662.38;5116707;28;20204;-73
2023/01/11 07:46:57;;;;;;;22.03;10.77;;;3.70;99.90;;;3.51;83.39;100660.59;5120027;28;20226;-71
2023/01/11 07:49:26;;;;;;;19.77;10.87;;;3.60;99.90;;;3.48;83.45;100654.53;5116036;28;20214;-73
2023/01/11 07:51:55;;;;;;;22.43;10.70;;;3.60;99.90;;;3.45;83.86;100664.66;5107615;28;20204;-74
2023/01/11 07:54:24;;;;;;;23.13;10.43;;;3.70;99.90;;;3.42;83.54;100664.56;5112109;28;20212;-69
2023/01/11 07:56:55;;;;;;;20.57;10.37;;;3.60;99.90;;;3.42;83.89;100674.75;5105983;28;20407;-73
2023/01/11 07:59:23;;;;;;;19.30;10.73;;;3.60;99.90;;;3.39;83.57;100670.44;5121700;28;20304;-71
2023/01/11 08:01:53;;;;;;;19.00;9.93;;;3.60;99.90;;;3.42;83.62;100670.50;5100885;28;20232;-72
2023/01/11 08:04:22;;;;;;;16.37;9.33;;;3.60;99.90;;;3.43;83.51;100666.31;5117038;28;20273;-70
2023/01/11 08:06:51;;;;;;;15.00;8.70;;;3.60;99.90;;;3.43;83.21;100671.41;5103813;28;20212;-72
2023/01/11 08:09:20;;;;;;;21.33;9.57;;;3.60;99.90;;;3.40;83.10;100656.88;5117854;28;20204;-71
2023/01/11 08:14:40;;;;;;;19.23;9.43;;;3.60;99.90;;;3.43;83.51;100656.97;5118998;28;20219;-71
2023/01/11 08:17:13;;;;;;;24.20;10.50;;;3.70;99.90;;;3.45;84.07;100657.00;5118160;28;20200;-71
2023/01/11 08:19:42;;;;;;;21.27;9.83;;;3.70;99.90;;;3.49;83.71;100657.13;5117762;28;20797;-72
2023/01/11 08:22:11;;;;;;;23.70;10.63;;;3.70;99.90;;;3.52;83.53;100657.22;5115398;28;20228;-71
2023/01/11 08:24:40;;;;;;;20.00;10.43;;;3.80;99.90;;;3.55;83.52;100649.66;5115704;28;20200;-72
2023/01/11 08:27:08;;;;;;;20.03;10.60;;;3.70;99.90;;;3.59;83.09;100648.06;5116900;28;20207;-71
2023/01/11 08:29:38;;;;;;;20.07;10.80;;;3.80;99.90;;;3.61;82.81;100647.28;5117792;28;20218;-74
2023/01/11 08:32:07;;;;;;;17.60;10.10;;;3.90;99.90;;;3.68;83.16;100642.31;5117536;27;20230;-72
2023/01/11 08:34:36;;;;;;;22.53;11.43;;;3.90;99.90;;;3.71;83.05;100642.41;5115929;27;20258;-71
2023/01/11 08:37:05;;;;;;;18.87;10.77;;;4.00;99.90;;;3.83;82.77;100646.16;5118819;28;20211;-69
2023/01/11 08:39:34;;;;;;;19.77;10.77;;;4.10;99.90;;;3.99;83.33;100644.81;5119984;28;20687;-73
2023/01/11 08:42:03;;;;;;;21.07;11.30;;;4.20;99.90;;;4.08;82.21;100639.94;5120802;28;20449;-73
2023/01/11 08:44:31;;;;;;;19.20;10.83;;;4.30;99.90;;;4.18;81.83;100637.63;5119774;28;20208;-72
2023/01/11 08:47:02;;;;;;;19.43;10.77;;;4.40;99.90;;;4.35;81.64;100642.31;5120255;28;20225;-71
2023/01/11 08:49:31;;;;;;;24.50;10.90;;;4.60;99.90;;;4.46;81.08;100646.78;5119752;28;20219;-72
2023/01/11 08:52:01;;;;;;;22.63;11.30;;;4.60;99.90;;;4.50;80.71;100644.34;5116714;28;20208;-71
2023/01/11 08:54:29;;;;;;;23.80;9.97;;;4.70;99.90;;;4.52;80.02;100631.59;5117695;28;20225;-72
2023/01/11 08:56:58;;;;;;;17.53;10.73;;;4.70;99.90;;;4.50;79.85;100635.81;5116199;28;20288;-71
2023/01/11 08:59:26;;;;;;;20.17;10.57;;;4.70;99.90;;;4.46;79.41;100637.44;5115586;28;20211;-71
2023/01/11 09:01:55;;;;;;;19.77;9.80;;;4.70;99.90;;;4.41;79.68;100640.69;5113683;28;20228;-72
2023/01/11 09:04:24;;;;;;;23.33;11.17;;;4.60;99.90;;;4.41;79.82;100643.25;5105370;28;20207;-73
2023/01/11 09:06:53;;;;;;;21.50;10.70;;;4.60;99.90;;;4.36;79.69;100643.16;5114817;28;20219;-71
2023/01/11 09:09:24;;;;;;;20.20;10.30;;;4.60;99.90;;;4.30;79.64;100640.44;5115333;28;20196;-73
2023/01/11 09:11:55;;;;;;;19.13;9.70;;;4.50;99.90;;;4.25;79.61;100642.03;5114240;28;20200;-72
2023/01/11 09:14:27;;;;;;;20.50;10.17;;;4.50;99.90;;;4.19;79.63;100642.75;5114312;28;20286;-73
2023/01/11 09:16:56;;;;;;;21.47;10.63;;;4.40;99.90;;;4.18;80.30;100641.03;5113722;28;20199;-72
2023/01/11 09:19:25;;;;;;;22.90;11.07;;;4.40;99.90;;;4.19;80.32;100632.53;5113852;28;20200;-72
2023/01/11 09:21:56;;;;;;;22.37;10.13;;;4.50;99.90;;;4.20;80.30;100634.28;5113532;28;20219;-72
2023/01/11 09:24:26;;;;;;;21.00;10.67;;;4.40;99.90;;;4.22;79.92;100630.06;5113928;28;20222;-73
2023/01/11 09:26:57;;;;;;;18.00;10.50;;;4.50;99.90;;;4.15;79.53;100620.56;5114656;28;20204;-72
2023/01/11 09:29:26;;;;;;;22.37;9.73;;;4.40;99.90;;;4.10;79.89;100606.84;5113379;28;20287;-72
2023/01/11 09:31:54;;;;;;;17.90;10.00;;;4.40;99.90;;;4.07;79.78;100611.88;5112782;27;20261;-72
2023/01/11 09:34:24;;;;;;;19.37;10.80;;;4.30;99.90;;;3.97;80.00;100603.13;5092759;28;20208;-73
2023/01/11 09:36:53;;;;;;;20.00;10.03;;;4.30;99.90;;;3.90;80.58;100603.78;5093721;28;20576;-72
2023/01/11 09:39:25;;;;;;;19.70;10.30;;;4.20;99.90;;;3.81;80.05;100604.44;5088560;28;20227;-73
2023/01/11 09:42:35;;;;;;;20.97;10.13;;;4.10;99.90;;;3.78;80.84;100594.16;5085150;28;20270;-73
2023/01/11 09:45:13;;;;;;;21.37;10.73;;;4.10;99.90;;;3.79;80.72;100595.91;5091018;28;20464;-71
2023/01/11 09:47:49;;;;;;;19.20;10.03;;;4.10;99.90;;;3.78;80.92;100604.38;5094599;28;20475;-73
2023/01/11 09:50:23;;;;;;;20.60;11.27;;;4.00;99.90;;;3.76;81.64;100606.03;5090683;28;20758;-72
2023/01/11 09:52:57;;;;;;;21.57;10.97;;;4.10;99.90;;;3.79;81.85;100603.56;5092591;28;20197;-72
2023/01/11 09:55:34;;;;;;;21.07;10.70;;;4.10;99.90;;;3.76;80.58;100607.72;5089442;28;20203;-72
2023/01/11 09:58:41;;;;;;;19.33;11.00;;;4.00;99.90;;;3.71;81.03;100594.84;5086816;28;20193;-71
2023/01/11 10:01:17;;;;;;;19.13;11.10;;;4.00;99.90;;;3.75;81.35;100606.84;5082439;28;20215;-70
2023/01/11 10:04:24;;;;;;;21.20;10.77;;;4.00;99.90;;;3.78;81.50;100600.97;5084680;28;20689;-72
2023/01/11 10:07:36;;;;;;;18.33;9.87;;;4.00;99.90;;;3.79;81.00;100592.47;5092194;28;20202;-72
2023/01/11 10:10:23;;;;;;;24.30;12.40;;;4.00;99.90;;;3.82;81.20;100587.47;5085546;28;20213;-74
2023/01/11 10:13:31;;;;;;;19.23;10.83;;;4.10;99.90;;;3.86;81.44;100594.34;5087647;28;20200;-73
2023/01/11 10:16:35;;;;;;;18.17;10.87;;;4.10;99.90;;;3.87;81.30;100594.41;5087653;28;20200;-73
2023/01/11 10:19:31;;;;;;;23.13;11.03;;;4.20;99.90;;;3.92;81.30;100591.97;5084513;28;20287;-74
2023/01/11 10:22:19;;;;;;;22.50;10.80;;;4.20;99.90;;;3.96;81.13;100583.56;5083483;28;20590;-71
2023/01/11 10:24:54;;;;;;;18.33;12.03;;;4.20;99.90;;;4.00;81.08;100585.34;5093675;28;20713;-72
2023/01/11 10:27:31;;;;;;;19.63;10.40;;;4.30;99.90;;;4.05;80.48;100580.34;5090766;28;20215;-71
2023/01/11 10:30:31;;;;;;;19.83;10.83;;;4.30;99.90;;;4.10;81.12;100582.19;5094346;28;20571;-73
2023/01/11 10:33:17;;;;;;;20.60;10.50;;;4.40;99.90;;;4.12;80.00;100587.31;5099761;28;20227;-74
2023/01/11 10:36:09;;;;;;;20.13;10.73;;;4.40;99.90;;;4.10;79.93;100582.19;5116507;27;20199;-73
2023/01/11 10:39:02;;;;;;;21.17;11.50;;;4.40;99.90;;;4.12;80.54;100584.78;5112970;28;20659;-74
2023/01/11 10:41:39;;;;;;;19.67;11.10;;;4.40;99.90;;;4.16;79.69;100575.50;5115127;28;20211;-73
2023/01/11 10:44:22;;;;;;;19.40;10.70;;;4.40;99.90;;;4.16;79.41;100581.50;5110374;28;20257;-73
2023/01/11 10:46:55;;;;;;;20.03;11.00;;;4.40;99.90;;;4.13;79.47;100571.22;5115887;28;20196;-73
2023/01/11 10:49:34;;;;;;;24.73;12.27;;;4.40;99.90;;;4.14;79.61;100577.19;5115570;28;20629;-69
2023/01/11 10:52:22;;;;;;;18.43;12.03;;;4.40;99.90;;;4.15;79.57;100559.34;5110370;28;20200;-75
2023/01/11 10:54:54;;;;;;;17.80;10.87;;;4.40;99.90;;;4.17;79.54;100561.94;5112598;28;20322;-72
2023/01/11 10:57:43;;;;;;;18.47;11.20;;;4.40;99.90;;;4.17;79.77;100565.34;5115120;28;20322;-72